Adri Lab — WDF2836 — position and weather

sailwx.info

Track history (hours):
 
Tides and Currents Weather Stations Pressure Air Temp Water Temp Dewpoint Dewpoint Depression Visibility Wind Speed Wind Dir Waves Ship Positions

Adri Lab

Owner: LABORDE BROTHERS CREWBOATS LLC, MORGAN CITY, LA. More information available from US FCC via Universal Licensing System and Coast Guard Vessel Documentation Center.

Last reported at 2018-Jun-18 22:30 UTC. Time now 2018-Jun-18 22:38 UTC.
Position N 29°48' W 092°09'.

Length 44 m; draft 2.5 m.

Type: Passenger vessel. MMSI: 268112000.

Date/timePositionNaut miles runAvg speedWind from/ knotsBaromVisibWave heightAir tempDewpointWater temp
2018-Jun-18 22:30N 29°48' W 092°09'0 0.0
2018-Jun-18 22:00N 29°48' W 092°09'0 0.0
2018-Jun-18 21:30N 29°48' W 092°09'0 0.0
2018-Jun-18 21:00N 29°48' W 092°09'0 0.0
2018-Jun-18 20:30N 29°48' W 092°09'0 0.0
2018-Jun-18 20:00N 29°48' W 092°09'0 0.0
2018-Jun-18 19:30N 29°48' W 092°09'0 0.0
2018-Jun-18 19:00N 29°48' W 092°09'0 0.0
2018-Jun-18 18:30N 29°48' W 092°09'0 0.0
2018-Jun-18 18:00N 29°48' W 092°09'0 0.0
2018-Jun-18 17:30N 29°48' W 092°09'1 1.2
2018-Jun-18 17:00N 29°47' W 092°09'4 8.4
2018-Jun-18 16:30N 29°45' W 092°13'11 3.5
2018-Jun-18 13:24N 29°35' W 092°18'513.5
2018-Jun-18 13:00N 29°40' W 092°15'611.7
2018-Jun-18 12:30N 29°45' W 092°13'4 8.3
2018-Jun-18 12:00N 29°47' W 092°09'0 0.3
2018-Jun-18 11:30N 29°48' W 092°09'0 0.0
2018-Jun-18 11:00N 29°48' W 092°09'0 0.0
2018-Jun-18 10:30N 29°48' W 092°09'0 0.0
2018-Jun-18 10:00N 29°48' W 092°09'0 0.0
2018-Jun-18 09:30N 29°48' W 092°09'0 0.0
2018-Jun-18 09:00N 29°48' W 092°09'0 0.0
2018-Jun-18 08:30N 29°48' W 092°09'0 0.0
2018-Jun-18 08:00N 29°48' W 092°09'0 0.0
2018-Jun-18 07:30N 29°48' W 092°09'0 0.0
2018-Jun-18 07:00N 29°48' W 092°09'0 0.0
2018-Jun-18 06:30N 29°48' W 092°09'0 0.0
2018-Jun-18 06:00N 29°48' W 092°09'0 0.0
2018-Jun-18 05:30N 29°48' W 092°09'0 0.0
2018-Jun-18 05:00N 29°48' W 092°09'0 0.0
2018-Jun-18 04:30N 29°48' W 092°09'0 0.0
2018-Jun-18 04:00N 29°48' W 092°09'0 0.0
2018-Jun-18 03:30N 29°48' W 092°09'0 0.0
2018-Jun-18 03:00N 29°48' W 092°09'0 0.0
2018-Jun-18 02:30N 29°48' W 092°09'0 0.0
2018-Jun-18 02:00N 29°48' W 092°09'0 0.0
2018-Jun-18 01:30N 29°48' W 092°09'0 0.0
2018-Jun-18 01:00N 29°48' W 092°09'0 0.0
2018-Jun-18 00:30N 29°48' W 092°09'0 0.0
2018-Jun-18 00:00N 29°48' W 092°09'0 0.0
2018-Jun-17 23:30N 29°48' W 092°09'0 0.0
2018-Jun-17 23:00N 29°48' W 092°09'0 0.0
2018-Jun-17 22:30N 29°48' W 092°09'0 0.0
2018-Jun-17 22:00N 29°48' W 092°09'0 0.0
2018-Jun-17 21:30N 29°48' W 092°09'0 0.0
2018-Jun-17 21:00N 29°48' W 092°09'0 0.0
2018-Jun-17 20:30N 29°48' W 092°09'0 0.0
2018-Jun-17 20:00N 29°48' W 092°09'0 0.0
2018-Jun-17 19:30N 29°48' W 092°09'0 0.0
2018-Jun-17 19:00N 29°48' W 092°09'0 0.0
2018-Jun-17 18:30N 29°48' W 092°09'0 0.0
2018-Jun-17 18:00N 29°48' W 092°09'0 0.0
2018-Jun-17 17:30N 29°48' W 092°09'0 0.0
2018-Jun-17 17:00N 29°48' W 092°09'0 0.0
2018-Jun-17 16:30N 29°48' W 092°09'0 0.0
2018-Jun-17 16:00N 29°48' W 092°09'0 0.0
2018-Jun-17 15:30N 29°48' W 092°09'0 0.0
2018-Jun-17 15:00N 29°48' W 092°09'0 0.0
2018-Jun-17 14:30N 29°48' W 092°09'0 0.1
2018-Jun-17 14:00N 29°47' W 092°09'0 0.0
2018-Jun-17 13:30N 29°47' W 092°09'0 0.0
2018-Jun-17 13:00N 29°47' W 092°09'0 0.0
2018-Jun-17 12:30N 29°47' W 092°09'0 0.0
2018-Jun-17 12:00N 29°47' W 092°09'0 0.0
2018-Jun-17 11:30N 29°47' W 092°09'0 0.0
2018-Jun-17 11:00N 29°47' W 092°09'0 0.0
2018-Jun-17 10:29N 29°47' W 092°09'0 0.0
2018-Jun-17 10:00N 29°47' W 092°09'0 0.0
2018-Jun-17 09:29N 29°47' W 092°09'0 0.0
2018-Jun-17 09:00N 29°47' W 092°09'0 0.0
2018-Jun-17 08:30N 29°47' W 092°09'0 0.0
2018-Jun-17 08:00N 29°47' W 092°09'0 0.0
2018-Jun-17 07:30N 29°47' W 092°09'0 0.0
2018-Jun-17 06:43N 29°47' W 092°09'0 0.8
2018-Jun-17 06:30N 29°47' W 092°09'4 7.9
2018-Jun-17 06:00N 29°45' W 092°12'12 0.5
2018-Jun-16 07:51N 29°34' W 092°18'720.4
2018-Jun-16 07:31N 29°41' W 092°15'714.0
2018-Jun-16 07:01N 29°47' W 092°11'2 2.0
2018-Jun-16 06:14N 29°47' W 092°09'1 3.3
2018-Jun-16 06:00N 29°48' W 092°09'0 0.0
2018-Jun-16 05:30N 29°48' W 092°09'0 0.0
2018-Jun-16 05:00N 29°48' W 092°09'2 3.8
2018-Jun-16 04:31N 29°46' W 092°10'14 0.3
2018-Jun-14 09:03N 29°34' W 092°18'122.8
2018-Jun-14 09:01N 29°35' W 092°18'1020.4
2018-Jun-14 08:30N 29°44' W 092°14'510.6
2018-Jun-14 08:00N 29°47' W 092°09'0 0.1
2018-Jun-14 07:30N 29°47' W 092°09'2 4.6
2018-Jun-14 07:00N 29°47' W 092°11'0 0.0
2018-Jun-14 06:28N 29°47' W 092°11'0 0.0
2018-Jun-14 06:00N 29°47' W 092°11'0 0.0
2018-Jun-14 05:30N 29°47' W 092°11'0 0.0
2018-Jun-14 05:01N 29°47' W 092°11'0 0.0
2018-Jun-14 04:31N 29°47' W 092°11'1 1.6
2018-Jun-14 04:00N 29°46' W 092°11'14 0.6
2018-Jun-13 05:45N 29°34' W 092°18'623.7
2018-Jun-13 05:31N 29°39' W 092°16'918.4
2018-Jun-13 05:00N 29°47' W 092°10'1 2.6
2018-Jun-13 04:29N 29°48' W 092°09'0 0.0
2018-Jun-13 03:59N 29°48' W 092°09'0 0.0
2018-Jun-13 03:29N 29°48' W 092°09'0 0.0
2018-Jun-13 02:59N 29°48' W 092°09'0 0.0
2018-Jun-13 02:29N 29°48' W 092°09'0 0.0
2018-Jun-13 01:59N 29°48' W 092°09'0 0.0
2018-Jun-13 01:31N 29°48' W 092°09'510.0
2018-Jun-13 01:00N 29°45' W 092°13'  
Track history (hours):
 
Tides and Currents Weather Stations Pressure Air Temp Water Temp Dewpoint Dewpoint Depression Visibility Wind Speed Wind Dir Waves Ship Positions

Adri Lab

Owner: LABORDE BROTHERS CREWBOATS LLC, MORGAN CITY, LA. More information available from US FCC via Universal Licensing System and Coast Guard Vessel Documentation Center.

Last reported at 2018-Jun-18 22:30 UTC. Time now 2018-Jun-18 22:38 UTC.
Position N 29°48' W 092°09'.

Length 44 m; draft 2.5 m.

Type: Passenger vessel. MMSI: 268112000.

Date/timePositionNaut miles runAvg speedWind from/ knotsBaromVisibWave heightAir tempDewpointWater temp
2018-Jun-18 22:30N 29°48' W 092°09'0 0.0
2018-Jun-18 22:00N 29°48' W 092°09'0 0.0
2018-Jun-18 21:30N 29°48' W 092°09'0 0.0
2018-Jun-18 21:00N 29°48' W 092°09'0 0.0
2018-Jun-18 20:30N 29°48' W 092°09'0 0.0
2018-Jun-18 20:00N 29°48' W 092°09'0 0.0
2018-Jun-18 19:30N 29°48' W 092°09'0 0.0
2018-Jun-18 19:00N 29°48' W 092°09'0 0.0
2018-Jun-18 18:30N 29°48' W 092°09'0 0.0
2018-Jun-18 18:00N 29°48' W 092°09'0 0.0
2018-Jun-18 17:30N 29°48' W 092°09'1 1.2
2018-Jun-18 17:00N 29°47' W 092°09'4 8.4
2018-Jun-18 16:30N 29°45' W 092°13'11 3.5
2018-Jun-18 13:24N 29°35' W 092°18'513.5
2018-Jun-18 13:00N 29°40' W 092°15'611.7
2018-Jun-18 12:30N 29°45' W 092°13'4 8.3
2018-Jun-18 12:00N 29°47' W 092°09'0 0.3
2018-Jun-18 11:30N 29°48' W 092°09'0 0.0
2018-Jun-18 11:00N 29°48' W 092°09'0 0.0
2018-Jun-18 10:30N 29°48' W 092°09'0 0.0
2018-Jun-18 10:00N 29°48' W 092°09'0 0.0
2018-Jun-18 09:30N 29°48' W 092°09'0 0.0
2018-Jun-18 09:00N 29°48' W 092°09'0 0.0
2018-Jun-18 08:30N 29°48' W 092°09'0 0.0
2018-Jun-18 08:00N 29°48' W 092°09'0 0.0
2018-Jun-18 07:30N 29°48' W 092°09'0 0.0
2018-Jun-18 07:00N 29°48' W 092°09'0 0.0
2018-Jun-18 06:30N 29°48' W 092°09'0 0.0
2018-Jun-18 06:00N 29°48' W 092°09'0 0.0
2018-Jun-18 05:30N 29°48' W 092°09'0 0.0
2018-Jun-18 05:00N 29°48' W 092°09'0 0.0
2018-Jun-18 04:30N 29°48' W 092°09'0 0.0
2018-Jun-18 04:00N 29°48' W 092°09'0 0.0
2018-Jun-18 03:30N 29°48' W 092°09'0 0.0
2018-Jun-18 03:00N 29°48' W 092°09'0 0.0
2018-Jun-18 02:30N 29°48' W 092°09'0 0.0
2018-Jun-18 02:00N 29°48' W 092°09'0 0.0
2018-Jun-18 01:30N 29°48' W 092°09'0 0.0
2018-Jun-18 01:00N 29°48' W 092°09'0 0.0
2018-Jun-18 00:30N 29°48' W 092°09'0 0.0
2018-Jun-18 00:00N 29°48' W 092°09'0 0.0
2018-Jun-17 23:30N 29°48' W 092°09'0 0.0
2018-Jun-17 23:00N 29°48' W 092°09'0 0.0
2018-Jun-17 22:30N 29°48' W 092°09'0 0.0
2018-Jun-17 22:00N 29°48' W 092°09'0 0.0
2018-Jun-17 21:30N 29°48' W 092°09'0 0.0
2018-Jun-17 21:00N 29°48' W 092°09'0 0.0
2018-Jun-17 20:30N 29°48' W 092°09'0 0.0
2018-Jun-17 20:00N 29°48' W 092°09'0 0.0
2018-Jun-17 19:30N 29°48' W 092°09'0 0.0
2018-Jun-17 19:00N 29°48' W 092°09'0 0.0
2018-Jun-17 18:30N 29°48' W 092°09'0 0.0
2018-Jun-17 18:00N 29°48' W 092°09'0 0.0
2018-Jun-17 17:30N 29°48' W 092°09'0 0.0
2018-Jun-17 17:00N 29°48' W 092°09'0 0.0
2018-Jun-17 16:30N 29°48' W 092°09'0 0.0
2018-Jun-17 16:00N 29°48' W 092°09'0 0.0
2018-Jun-17 15:30N 29°48' W 092°09'0 0.0
2018-Jun-17 15:00N 29°48' W 092°09'0 0.0
2018-Jun-17 14:30N 29°48' W 092°09'0 0.1
2018-Jun-17 14:00N 29°47' W 092°09'0 0.0
2018-Jun-17 13:30N 29°47' W 092°09'0 0.0
2018-Jun-17 13:00N 29°47' W 092°09'0 0.0
2018-Jun-17 12:30N 29°47' W 092°09'0 0.0
2018-Jun-17 12:00N 29°47' W 092°09'0 0.0
2018-Jun-17 11:30N 29°47' W 092°09'0 0.0
2018-Jun-17 11:00N 29°47' W 092°09'0 0.0
2018-Jun-17 10:29N 29°47' W 092°09'0 0.0
2018-Jun-17 10:00N 29°47' W 092°09'0 0.0
2018-Jun-17 09:29N 29°47' W 092°09'0 0.0
2018-Jun-17 09:00N 29°47' W 092°09'0 0.0
2018-Jun-17 08:30N 29°47' W 092°09'0 0.0
2018-Jun-17 08:00N 29°47' W 092°09'0 0.0
2018-Jun-17 07:30N 29°47' W 092°09'0 0.0
2018-Jun-17 06:43N 29°47' W 092°09'0 0.8
2018-Jun-17 06:30N 29°47' W 092°09'4 7.9
2018-Jun-17 06:00N 29°45' W 092°12'12 0.5
2018-Jun-16 07:51N 29°34' W 092°18'720.4
2018-Jun-16 07:31N 29°41' W 092°15'714.0
2018-Jun-16 07:01N 29°47' W 092°11'2 2.0
2018-Jun-16 06:14N 29°47' W 092°09'1 3.3
2018-Jun-16 06:00N 29°48' W 092°09'0 0.0
2018-Jun-16 05:30N 29°48' W 092°09'0 0.0
2018-Jun-16 05:00N 29°48' W 092°09'2 3.8
2018-Jun-16 04:31N 29°46' W 092°10'14 0.3
2018-Jun-14 09:03N 29°34' W 092°18'122.8
2018-Jun-14 09:01N 29°35' W 092°18'1020.4
2018-Jun-14 08:30N 29°44' W 092°14'510.6
2018-Jun-14 08:00N 29°47' W 092°09'0 0.1
2018-Jun-14 07:30N 29°47' W 092°09'2 4.6
2018-Jun-14 07:00N 29°47' W 092°11'0 0.0
2018-Jun-14 06:28N 29°47' W 092°11'0 0.0
2018-Jun-14 06:00N 29°47' W 092°11'0 0.0
2018-Jun-14 05:30N 29°47' W 092°11'0 0.0
2018-Jun-14 05:01N 29°47' W 092°11'0 0.0
2018-Jun-14 04:31N 29°47' W 092°11'1 1.6
2018-Jun-14 04:00N 29°46' W 092°11'14 0.6
2018-Jun-13 05:45N 29°34' W 092°18'623.7
2018-Jun-13 05:31N 29°39' W 092°16'918.4
2018-Jun-13 05:00N 29°47' W 092°10'1 2.6
2018-Jun-13 04:29N 29°48' W 092°09'0 0.0
2018-Jun-13 03:59N 29°48' W 092°09'0 0.0
2018-Jun-13 03:29N 29°48' W 092°09'0 0.0
2018-Jun-13 02:59N 29°48' W 092°09'0 0.0
2018-Jun-13 02:29N 29°48' W 092°09'0 0.0
2018-Jun-13 01:59N 29°48' W 092°09'0 0.0
2018-Jun-13 01:31N 29°48' W 092°09'510.0
2018-Jun-13 01:00N 29°45' W 092°13'  

Dump ship's entire track history